Time;durP1;ratioP1;P1;durP2;ratioP2;P2;SDS_P1;SDS_P2;PMS_P1;PMS_P2;Temp;Humidity;BMP_temperature;BMP_pressure;BME280_temperature;BME280_humidity;BME280_pressure;Samples;Min_cycle;Max_cycle;Signal;HPM_P1;HPM_P2
2021/03/26 00:00:58;;;;;;;48.20;35.78;;;;;;;;;;2072681;28;20241;-60
2021/03/26 00:01:59;;;;;;;53.85;36.00;;;;;;;;;;2074121;28;20196;-60
2021/03/26 00:03:00;;;;;;;49.85;37.53;;;;;;;;;;2069413;28;20228;-60
2021/03/26 00:04:02;;;;;;;52.70;37.65;;;;;;;;;;2073476;28;20173;-61
2021/03/26 00:05:03;;;;;;;50.28;35.30;;;;;;;;;;2069729;28;20184;-60
2021/03/26 00:06:06;;;;;;;53.38;37.42;;;;;;;;;;2069076;28;20277;-62
2021/03/26 00:07:06;;;;;;;51.40;36.00;;;;;;;;;;2071608;28;20740;-62
2021/03/26 00:08:06;;;;;;;75.00;50.47;;;;;;;;;;2071118;28;20169;-59
2021/03/26 00:09:07;;;;;;;59.85;39.33;;;;;;;;;;2072382;28;20263;-60
2021/03/26 00:10:09;;;;;;;57.00;38.88;;;;;;;;;;2069186;28;20172;-62
2021/03/26 00:11:10;;;;;;;59.53;41.38;;;;;;;;;;2069364;28;20196;-59
2021/03/26 00:12:12;;;;;;;66.80;43.20;;;;;;;;;;2071518;28;20177;-63
2021/03/26 00:13:13;;;;;;;62.08;43.00;;;;;;;;;;2068967;28;20174;-62
2021/03/26 00:14:14;;;;;;;61.40;40.65;;;;;;;;;;2071149;28;20177;-62
2021/03/26 00:15:14;;;;;;;57.45;41.53;;;;;;;;;;2071855;28;20914;-62
2021/03/26 00:16:14;;;;;;;64.45;43.05;;;;;;;;;;2071301;28;20839;-61
2021/03/26 00:17:15;;;;;;;62.75;42.15;;;;;;;;;;2072454;28;20181;-61
2021/03/26 00:18:15;;;;;;;62.22;40.88;;;;;;;;;;2070321;28;20256;-60
2021/03/26 00:19:17;;;;;;;54.05;39.53;;;;;;;;;;2067560;28;20212;-63
2021/03/26 00:20:17;;;;;;;52.08;37.60;;;;;;;;;;2068610;28;20173;-59
2021/03/26 00:21:17;;;;;;;58.63;41.03;;;;;;;;;;2071448;28;20256;-60
2021/03/26 00:22:18;;;;;;;59.72;39.45;;;;;;;;;;2070755;28;20260;-62
2021/03/26 00:23:18;;;;;;;51.92;36.13;;;;;;;;;;2072595;28;20188;-60
2021/03/26 00:24:18;;;;;;;51.78;37.65;;;;;;;;;;2072229;28;20184;-63
2021/03/26 00:25:19;;;;;;;47.50;35.97;;;;;;;;;;2069354;28;20164;-60
2021/03/26 00:26:20;;;;;;;51.13;35.70;;;;;;;;;;2071967;28;20180;-63
2021/03/26 00:27:20;;;;;;;49.22;36.40;;;;;;;;;;2069290;28;20165;-62
2021/03/26 00:28:20;;;;;;;50.58;36.53;;;;;;;;;;2071467;28;20254;-59
2021/03/26 00:29:20;;;;;;;53.20;37.97;;;;;;;;;;2070599;28;20624;-58
2021/03/26 00:30:21;;;;;;;55.28;38.05;;;;;;;;;;2071963;28;20177;-61
2021/03/26 00:31:22;;;;;;;53.08;39.33;;;;;;;;;;2074397;28;20168;-63
2021/03/26 00:32:22;;;;;;;53.17;37.28;;;;;;;;;;2075918;28;20255;-57
2021/03/26 00:33:23;;;;;;;52.35;38.25;;;;;;;;;;2072393;28;20173;-59
2021/03/26 00:34:23;;;;;;;51.40;35.90;;;;;;;;;;2072795;28;20176;-59
2021/03/26 00:35:24;;;;;;;49.65;34.95;;;;;;;;;;2072308;28;20180;-57
2021/03/26 00:36:25;;;;;;;54.88;38.35;;;;;;;;;;2073200;28;20645;-62
2021/03/26 00:37:25;;;;;;;53.50;36.97;;;;;;;;;;2070829;28;20258;-60
2021/03/26 00:38:26;;;;;;;49.13;35.63;;;;;;;;;;2073165;28;20173;-61
2021/03/26 00:39:26;;;;;;;49.80;35.97;;;;;;;;;;2071674;28;20172;-60
2021/03/26 00:40:26;;;;;;;51.20;37.00;;;;;;;;;;2071404;28;20215;-59
2021/03/26 00:41:27;;;;;;;55.08;39.38;;;;;;;;;;2069247;28;20182;-61
2021/03/26 00:42:27;;;;;;;54.65;37.80;;;;;;;;;;2068155;28;20634;-63
2021/03/26 00:43:27;;;;;;;57.38;38.53;;;;;;;;;;2068422;28;20169;-61
2021/03/26 00:44:27;;;;;;;55.67;40.30;;;;;;;;;;2074531;28;20231;-61
2021/03/26 00:45:30;;;;;;;55.35;39.60;;;;;;;;;;2072713;28;20183;-61
2021/03/26 00:46:31;;;;;;;53.95;37.78;;;;;;;;;;2072009;28;20221;-61
2021/03/26 00:47:31;;;;;;;58.22;39.90;;;;;;;;;;2072289;28;20231;-62
2021/03/26 00:48:32;;;;;;;55.47;38.75;;;;;;;;;;2074824;28;20181;-61
2021/03/26 00:49:32;;;;;;;54.93;38.93;;;;;;;;;;2070931;28;20180;-61
2021/03/26 00:50:35;;;;;;;57.60;40.05;;;;;;;;;;2074186;28;20164;-63
2021/03/26 00:51:36;;;;;;;57.67;40.75;;;;;;;;;;2071525;28;20169;-62
2021/03/26 00:52:37;;;;;;;57.47;38.67;;;;;;;;;;2069904;28;20233;-60
2021/03/26 00:53:37;;;;;;;57.40;40.35;;;;;;;;;;2070416;28;20515;-60
2021/03/26 00:54:39;;;;;;;56.50;40.72;;;;;;;;;;2071796;28;20168;-59
2021/03/26 00:55:40;;;;;;;59.45;40.83;;;;;;;;;;2069886;28;20680;-63
2021/03/26 00:56:41;;;;;;;56.92;40.10;;;;;;;;;;2071375;28;20189;-60
2021/03/26 00:57:42;;;;;;;57.35;42.03;;;;;;;;;;2070590;28;20199;-62
2021/03/26 00:58:42;;;;;;;65.23;44.13;;;;;;;;;;2073153;28;20568;-60
2021/03/26 00:59:42;;;;;;;64.27;43.10;;;;;;;;;;2072688;28;20215;-58
2021/03/26 01:00:43;;;;;;;61.97;41.83;;;;;;;;;;2073342;28;20200;-61
2021/03/26 01:01:45;;;;;;;64.78;42.17;;;;;;;;;;2067697;28;20185;-59
2021/03/26 01:02:51;;;;;;;63.03;42.37;;;;;;;;;;2107344;28;20546;-57
2021/03/26 01:03:51;;;;;;;56.17;40.17;;;;;;;;;;2090746;28;20175;-60
2021/03/26 01:04:52;;;;;;;60.67;41.57;;;;;;;;;;2091115;28;20170;-58
2021/03/26 01:05:53;;;;;;;65.03;39.93;;;;;;;;;;2088797;28;20592;-64
2021/03/26 01:06:53;;;;;;;54.90;38.28;;;;;;;;;;2073460;28;20192;-61
2021/03/26 01:07:54;;;;;;;56.35;38.33;;;;;;;;;;2070257;28;20205;-62
2021/03/26 01:08:55;;;;;;;59.77;39.07;;;;;;;;;;2084792;28;20211;-61
2021/03/26 01:09:55;;;;;;;58.17;39.13;;;;;;;;;;2084223;28;20172;-61
2021/03/26 01:11:03;;;;;;;64.20;40.47;;;;;;;;;;2084214;28;20172;-62
2021/03/26 01:12:03;;;;;;;63.73;40.17;;;;;;;;;;2083332;28;20168;-60
2021/03/26 01:13:06;;;;;;;63.53;41.17;;;;;;;;;;2082915;28;20163;-61
2021/03/26 01:14:13;;;;;;;68.13;41.83;;;;;;;;;;2085036;28;20180;-58
2021/03/26 01:15:14;;;;;;;61.10;41.40;;;;;;;;;;2093934;28;20167;-62
2021/03/26 01:16:15;;;;;;;62.97;41.13;;;;;;;;;;2087728;28;20255;-64
2021/03/26 01:17:17;;;;;;;58.07;38.07;;;;;;;;;;2091298;28;20229;-59
2021/03/26 01:18:20;;;;;;;57.73;38.67;;;;;;;;;;2087956;28;20174;-61
2021/03/26 01:19:20;;;;;;;60.03;39.93;;;;;;;;;;2091081;28;20187;-61
2021/03/26 01:20:23;;;;;;;61.43;40.90;;;;;;;;;;2100768;28;20591;-62
2021/03/26 01:21:25;;;;;;;60.50;40.30;;;;;;;;;;2100291;28;20190;-61
2021/03/26 01:22:25;;;;;;;57.30;39.60;;;;;;;;;;2100283;28;20256;-59
2021/03/26 01:23:30;;;;;;;62.07;42.10;;;;;;;;;;2081618;28;20184;-60
2021/03/26 01:24:30;;;;;;;68.90;44.07;;;;;;;;;;2084667;28;20252;-58
2021/03/26 01:25:32;;;;;;;64.50;42.73;;;;;;;;;;2083430;28;20176;-61
2021/03/26 01:26:49;;;;;;;60.83;40.47;;;;;;;;;;2085118;28;20191;-61
2021/03/26 01:28:15;;;;;;;63.83;41.40;;;;;;;;;;2087419;28;20183;-58
2021/03/26 01:29:15;;;;;;;61.33;38.80;;;;;;;;;;2092530;28;20190;-60
2021/03/26 01:30:27;;;;;;;58.97;41.00;;;;;;;;;;2091278;28;20164;-61
2021/03/26 01:31:28;;;;;;;65.10;44.57;;;;;;;;;;2099954;28;20160;-61
2021/03/26 01:32:29;;;;;;;64.72;42.60;;;;;;;;;;2091309;28;20218;-60
2021/03/26 01:33:30;;;;;;;64.57;43.47;;;;;;;;;;2091772;28;20180;-60
2021/03/26 01:34:30;;;;;;;68.90;45.03;;;;;;;;;;2091546;28;20248;-61
2021/03/26 01:35:36;;;;;;;66.23;43.53;;;;;;;;;;2091396;28;20176;-56
2021/03/26 01:36:36;;;;;;;71.07;43.37;;;;;;;;;;2092666;28;20192;-60
2021/03/26 01:37:40;;;;;;;71.83;46.00;;;;;;;;;;2080163;28;20172;-58
2021/03/26 01:38:41;;;;;;;76.60;46.50;;;;;;;;;;2084251;28;20172;-59
2021/03/26 01:39:42;;;;;;;77.60;49.10;;;;;;;;;;2090840;28;20183;-61
2021/03/26 01:40:44;;;;;;;76.23;47.40;;;;;;;;;;2077732;28;20986;-58
2021/03/26 01:41:47;;;;;;;77.30;49.00;;;;;;;;;;2073717;28;20257;-57
2021/03/26 01:42:50;;;;;;;79.80;50.80;;;;;;;;;;2091760;28;20265;-58
2021/03/26 01:43:51;;;;;;;74.67;47.67;;;;;;;;;;2081873;28;20226;-64
2021/03/26 01:44:51;;;;;;;82.87;51.17;;;;;;;;;;2083976;28;20161;-60
2021/03/26 01:45:58;;;;;;;77.07;48.50;;;;;;;;;;2080247;28;20164;-62
2021/03/26 01:46:59;;;;;;;73.78;47.92;;;;;;;;;;2081584;28;20223;-60
2021/03/26 01:48:00;;;;;;;70.23;44.87;;;;;;;;;;2080056;28;20200;-60
2021/03/26 01:49:04;;;;;;;74.00;45.63;;;;;;;;;;2080269;28;20203;-59
2021/03/26 01:50:06;;;;;;;73.43;46.13;;;;;;;;;;2089453;28;20188;-61
2021/03/26 01:51:09;;;;;;;68.10;45.83;;;;;;;;;;2081238;28;20192;-62
2021/03/26 01:52:09;;;;;;;67.57;45.07;;;;;;;;;;2088543;28;20642;-60
2021/03/26 01:53:11;;;;;;;76.00;45.03;;;;;;;;;;2090405;28;20179;-65
2021/03/26 01:54:21;;;;;;;71.20;43.97;;;;;;;;;;2079704;28;20188;-64
2021/03/26 01:55:41;;;;;;;68.63;46.27;;;;;;;;;;2075321;28;20687;-61
2021/03/26 01:56:42;;;;;;;69.28;42.95;;;;;;;;;;2081257;28;20195;-63
2021/03/26 01:57:57;;;;;;;66.40;44.20;;;;;;;;;;2092700;28;20151;-63
2021/03/26 01:59:02;;;;;;;68.10;43.60;;;;;;;;;;2088191;28;20567;-61
2021/03/26 02:00:10;;;;;;;65.80;43.25;;;;;;;;;;2090076;28;20210;-60
2021/03/26 02:01:15;;;;;;;64.37;44.10;;;;;;;;;;2099987;28;20648;-61
2021/03/26 02:02:19;;;;;;;65.63;42.87;;;;;;;;;;2080775;28;20664;-59
2021/03/26 02:03:47;;;;;;;61.83;42.42;;;;;;;;;;2089132;28;20175;-62
2021/03/26 02:04:48;;;;;;;61.67;40.77;;;;;;;;;;2089020;28;20180;-62
2021/03/26 02:06:19;;;;;;;62.95;41.13;;;;;;;;;;2082183;28;20190;-56
2021/03/26 02:07:23;;;;;;;61.47;39.85;;;;;;;;;;2087142;28;20223;-61
2021/03/26 02:08:26;;;;;;;64.45;42.83;;;;;;;;;;2089706;28;20187;-58
2021/03/26 02:09:34;;;;;;;65.30;42.20;;;;;;;;;;2089832;28;20163;-61
2021/03/26 02:10:35;;;;;;;57.03;41.60;;;;;;;;;;2079591;28;20168;-57
2021/03/26 02:11:49;;;;;;;62.27;41.77;;;;;;;;;;2091627;28;20208;-60
2021/03/26 02:12:54;;;;;;;62.57;41.37;;;;;;;;;;2090149;28;20179;-61
2021/03/26 02:13:55;;;;;;;61.93;41.53;;;;;;;;;;2086339;28;20208;-62
2021/03/26 02:15:07;;;;;;;58.93;40.80;;;;;;;;;;2068913;28;20586;-60
2021/03/26 02:16:09;;;;;;;60.37;41.63;;;;;;;;;;2071711;28;20181;-61
2021/03/26 02:17:17;;;;;;;62.70;40.07;;;;;;;;;;2087099;28;20179;-62
2021/03/26 02:18:34;;;;;;;60.67;38.25;;;;;;;;;;2080398;28;20294;-63
2021/03/26 02:19:40;;;;;;;60.05;40.08;;;;;;;;;;2077545;28;20176;-60
2021/03/26 02:20:43;;;;;;;57.80;40.07;;;;;;;;;;2083153;28;20218;-62
2021/03/26 02:21:48;;;;;;;59.53;38.80;;;;;;;;;;2082030;28;20176;-60
2021/03/26 02:22:49;;;;;;;60.73;40.83;;;;;;;;;;2086121;28;20298;-56
2021/03/26 02:23:49;;;;;;;62.97;41.33;;;;;;;;;;2082672;28;20167;-60
2021/03/26 02:24:50;;;;;;;56.73;38.93;;;;;;;;;;2078949;28;20580;-58
2021/03/26 02:25:51;;;;;;;58.72;39.00;;;;;;;;;;2076345;28;20180;-61
2021/03/26 02:26:52;;;;;;;61.28;38.55;;;;;;;;;;2082423;28;20291;-61
2021/03/26 02:27:53;;;;;;;54.67;38.50;;;;;;;;;;2077865;28;20556;-63
2021/03/26 02:28:54;;;;;;;56.93;40.10;;;;;;;;;;2077552;28;20207;-61
2021/03/26 02:30:18;;;;;;;59.43;40.03;;;;;;;;;;2078686;28;20181;-63
2021/03/26 02:31:20;;;;;;;58.73;39.87;;;;;;;;;;2086409;28;20174;-61
2021/03/26 02:32:21;;;;;;;58.53;36.63;;;;;;;;;;2094057;28;20207;-55
2021/03/26 02:33:22;;;;;;;57.73;38.63;;;;;;;;;;2095819;28;20272;-62
2021/03/26 02:34:23;;;;;;;52.33;37.53;;;;;;;;;;2083838;28;20237;-62
2021/03/26 02:35:23;;;;;;;54.70;39.03;;;;;;;;;;2076120;28;20187;-59
2021/03/26 02:36:31;;;;;;;54.87;38.53;;;;;;;;;;2075062;28;20172;-63
2021/03/26 02:37:37;;;;;;;56.23;37.23;;;;;;;;;;2083053;28;20172;-61
2021/03/26 02:38:43;;;;;;;50.45;35.70;;;;;;;;;;2078293;28;20200;-59
2021/03/26 02:39:49;;;;;;;57.40;37.97;;;;;;;;;;2074334;28;20173;-61
2021/03/26 02:41:24;;;;;;;52.37;36.90;;;;;;;;;;2073186;28;20184;-61
2021/03/26 02:42:28;;;;;;;51.17;36.60;;;;;;;;;;2065425;28;20664;-62
2021/03/26 02:43:36;;;;;;;51.40;34.50;;;;;;;;;;2078496;28;20181;-59
2021/03/26 02:46:49;;;;;;;60.22;38.03;;;;;;;;;;2090050;28;20187;-60
2021/03/26 02:47:57;;;;;;;55.63;38.50;;;;;;;;;;2095342;28;20232;-62
2021/03/26 02:49:07;;;;;;;52.97;37.60;;;;;;;;;;2083945;28;20156;-56
2021/03/26 02:50:13;;;;;;;58.53;38.20;;;;;;;;;;2075888;28;20288;-61
2021/03/26 02:51:27;;;;;;;54.58;37.03;;;;;;;;;;2077349;28;20271;-61
2021/03/26 02:52:30;;;;;;;53.95;35.33;;;;;;;;;;2084612;28;20175;-63
2021/03/26 02:53:50;;;;;;;55.35;38.40;;;;;;;;;;2076307;28;20255;-61
2021/03/26 02:55:04;;;;;;;52.35;36.75;;;;;;;;;;2077139;28;20175;-63
2021/03/26 02:56:06;;;;;;;62.05;39.30;;;;;;;;;;2082900;28;20519;-63
2021/03/26 02:57:17;;;;;;;55.65;37.30;;;;;;;;;;2085414;28;20191;-62
2021/03/26 02:58:21;;;;;;;54.80;37.67;;;;;;;;;;2088544;28;21471;-59
2021/03/26 02:59:30;;;;;;;59.22;37.45;;;;;;;;;;2082485;28;20186;-58
2021/03/26 03:00:37;;;;;;;60.50;39.17;;;;;;;;;;2084836;28;20169;-62
2021/03/26 03:01:40;;;;;;;55.22;38.38;;;;;;;;;;2081211;28;20210;-62
2021/03/26 03:02:43;;;;;;;54.58;37.58;;;;;;;;;;2074613;28;20207;-62
2021/03/26 03:03:46;;;;;;;54.45;38.17;;;;;;;;;;2084138;28;20172;-61
2021/03/26 03:05:04;;;;;;;58.63;38.80;;;;;;;;;;2093867;28;20167;-61
2021/03/26 03:06:08;;;;;;;60.30;39.53;;;;;;;;;;2088553;28;20168;-61
2021/03/26 03:07:30;;;;;;;60.90;40.03;;;;;;;;;;2097054;22;20243;-64
2021/03/26 03:08:48;;;;;;;54.80;38.10;;;;;;;;;;2071189;28;20614;-64
2021/03/26 03:10:01;;;;;;;62.13;39.97;;;;;;;;;;2071822;28;20248;-68
2021/03/26 03:11:12;;;;;;;52.67;37.10;;;;;;;;;;2066346;28;20170;-64
2021/03/26 03:12:29;;;;;;;55.63;38.23;;;;;;;;;;2067208;28;20181;-65
2021/03/26 03:13:36;;;;;;;54.65;37.30;;;;;;;;;;2072107;28;20188;-64
2021/03/26 03:14:43;;;;;;;54.87;37.90;;;;;;;;;;2079114;28;20168;-64
2021/03/26 03:15:58;;;;;;;61.17;39.10;;;;;;;;;;2082174;28;20168;-64
2021/03/26 03:17:02;;;;;;;56.92;38.95;;;;;;;;;;2074144;28;20183;-63
2021/03/26 03:18:11;;;;;;;58.30;40.63;;;;;;;;;;2081272;28;20172;-65
2021/03/26 03:19:21;;;;;;;58.00;38.30;;;;;;;;;;2080970;28;20184;-64
2021/03/26 03:20:28;;;;;;;57.28;39.30;;;;;;;;;;2072187;28;20566;-64
2021/03/26 03:21:38;;;;;;;59.47;39.63;;;;;;;;;;2073221;28;20185;-64
2021/03/26 03:22:50;;;;;;;58.47;38.47;;;;;;;;;;2081259;28;20200;-63
2021/03/26 03:24:11;;;;;;;61.90;38.33;;;;;;;;;;2080746;28;20609;-64
2021/03/26 03:25:20;;;;;;;61.67;37.17;;;;;;;;;;2080018;28;20697;-64
2021/03/26 03:26:21;;;;;;;59.10;40.27;;;;;;;;;;2076012;28;20201;-64
2021/03/26 03:27:28;;;;;;;56.13;37.97;;;;;;;;;;2073191;28;20249;-64
2021/03/26 03:28:35;;;;;;;60.83;36.75;;;;;;;;;;2072759;28;20260;-64
2021/03/26 03:29:58;;;;;;;58.55;37.13;;;;;;;;;;2089233;28;20167;-66
2021/03/26 03:31:33;;;;;;;59.03;39.17;;;;;;;;;;2085057;28;20196;-65
2021/03/26 03:32:37;;;;;;;54.88;38.22;;;;;;;;;;2077105;28;20182;-65
2021/03/26 03:34:00;;;;;;;58.63;39.15;;;;;;;;;;2087550;28;20164;-63
2021/03/26 03:35:12;;;;;;;56.45;38.83;;;;;;;;;;2078539;28;20594;-63
2021/03/26 03:36:15;;;;;;;59.67;39.87;;;;;;;;;;2083117;28;20176;-64
2021/03/26 03:37:18;;;;;;;56.85;39.30;;;;;;;;;;2083721;28;20369;-65
2021/03/26 03:38:18;;;;;;;55.95;38.95;;;;;;;;;;2080108;28;20172;-63
2021/03/26 03:39:26;;;;;;;61.05;39.90;;;;;;;;;;2081468;28;20607;-64
2021/03/26 03:40:54;;;;;;;64.20;39.10;;;;;;;;;;2076272;28;20507;-65
2021/03/26 03:41:54;;;;;;;63.65;42.42;;;;;;;;;;2078069;28;20177;-64
2021/03/26 03:43:02;;;;;;;62.40;41.40;;;;;;;;;;2072755;28;20705;-64
2021/03/26 03:44:13;;;;;;;57.60;40.53;;;;;;;;;;2083055;28;20251;-63
2021/03/26 03:45:24;;;;;;;63.30;40.20;;;;;;;;;;2082164;28;20183;-63
2021/03/26 03:46:29;;;;;;;61.90;40.30;;;;;;;;;;2083220;28;20211;-62
2021/03/26 03:48:01;;;;;;;55.23;38.23;;;;;;;;;;2073712;28;20257;-63
2021/03/26 03:49:23;;;;;;;61.97;41.17;;;;;;;;;;2080098;28;20270;-65
2021/03/26 03:50:28;;;;;;;59.27;39.17;;;;;;;;;;2084906;28;20182;-64
2021/03/26 03:51:39;;;;;;;54.42;38.17;;;;;;;;;;2086566;28;20179;-65
2021/03/26 03:52:44;;;;;;;54.40;38.33;;;;;;;;;;2088828;28;20663;-64
2021/03/26 03:54:11;;;;;;;58.57;40.30;;;;;;;;;;2088976;28;20164;-62
2021/03/26 03:55:11;;;;;;;59.08;40.20;;;;;;;;;;2070114;28;20243;-65
2021/03/26 03:56:25;;;;;;;63.13;40.30;;;;;;;;;;2072694;28;20176;-63
2021/03/26 03:57:37;;;;;;;66.33;41.23;;;;;;;;;;2085423;28;20258;-64
2021/03/26 03:58:39;;;;;;;57.93;39.70;;;;;;;;;;2073308;28;20623;-65
2021/03/26 04:00:12;;;;;;;67.23;41.57;;;;;;;;;;2082906;28;20190;-64
2021/03/26 04:01:25;;;;;;;67.67;41.63;;;;;;;;;;2084693;28;20183;-61
2021/03/26 04:02:42;;;;;;;68.47;42.27;;;;;;;;;;2085224;28;20199;-65
2021/03/26 04:03:47;;;;;;;61.57;40.50;;;;;;;;;;2086488;28;20160;-65
2021/03/26 04:04:47;;;;;;;62.70;41.03;;;;;;;;;;2085511;28;20215;-64
2021/03/26 04:05:48;;;;;;;65.57;41.63;;;;;;;;;;2078202;28;20856;-64
2021/03/26 04:06:58;;;;;;;60.27;41.33;;;;;;;;;;2083218;28;20216;-64
2021/03/26 04:08:08;;;;;;;65.57;41.77;;;;;;;;;;2079745;28;20203;-63
2021/03/26 04:09:13;;;;;;;61.73;41.00;;;;;;;;;;2088887;28;20195;-64
2021/03/26 04:10:18;;;;;;;58.53;39.33;;;;;;;;;;2084041;28;20238;-64
2021/03/26 04:11:26;;;;;;;63.60;41.90;;;;;;;;;;2071830;28;20184;-63
2021/03/26 04:12:35;;;;;;;64.93;41.08;;;;;;;;;;2077682;28;20703;-61
2021/03/26 04:13:47;;;;;;;58.47;39.63;;;;;;;;;;2072599;28;20173;-63
2021/03/26 04:15:01;;;;;;;71.67;43.13;;;;;;;;;;2082076;28;20665;-69
2021/03/26 04:16:10;;;;;;;64.73;41.50;;;;;;;;;;2076863;28;20184;-64
2021/03/26 04:17:25;;;;;;;64.60;42.87;;;;;;;;;;2075079;28;20643;-64
2021/03/26 04:18:30;;;;;;;64.00;41.80;;;;;;;;;;2074357;28;20723;-64
2021/03/26 04:19:53;;;;;;;63.50;40.87;;;;;;;;;;2073094;28;20172;-64
2021/03/26 04:20:57;;;;;;;71.10;44.30;;;;;;;;;;2071936;28;20882;-63
2021/03/26 04:22:07;;;;;;;68.73;43.40;;;;;;;;;;2076383;28;20173;-63
2021/03/26 04:23:25;;;;;;;62.00;42.23;;;;;;;;;;2073732;28;20180;-64
2021/03/26 04:24:45;;;;;;;74.83;43.80;;;;;;;;;;2083122;28;20189;-63
2021/03/26 04:26:03;;;;;;;61.03;41.80;;;;;;;;;;2081395;28;20192;-65
2021/03/26 04:27:27;;;;;;;68.70;42.33;;;;;;;;;;2088973;28;20727;-64
2021/03/26 04:28:48;;;;;;;66.80;42.73;;;;;;;;;;2079637;28;20200;-64
2021/03/26 04:30:13;;;;;;;64.97;42.47;;;;;;;;;;2080787;28;20263;-64
2021/03/26 04:31:28;;;;;;;67.23;43.77;;;;;;;;;;2089207;28;20221;-64
2021/03/26 04:32:41;;;;;;;72.03;44.57;;;;;;;;;;2086626;28;20218;-63
2021/03/26 04:33:42;;;;;;;72.40;44.73;;;;;;;;;;2075698;28;20689;-63
2021/03/26 04:34:43;;;;;;;72.73;45.23;;;;;;;;;;2075069;28;20195;-63
2021/03/26 04:35:45;;;;;;;71.20;44.03;;;;;;;;;;2083643;28;20171;-63
2021/03/26 04:36:52;;;;;;;68.87;44.33;;;;;;;;;;2087152;28;20278;-65
2021/03/26 04:38:10;;;;;;;72.20;43.63;;;;;;;;;;2079115;28;20175;-63
2021/03/26 04:39:17;;;;;;;72.10;44.33;;;;;;;;;;2068233;28;20184;-64
2021/03/26 04:40:34;;;;;;;79.20;47.00;;;;;;;;;;2065090;28;20906;-64
2021/03/26 04:41:39;;;;;;;78.80;46.57;;;;;;;;;;2078756;28;20179;-65
2021/03/26 04:42:44;;;;;;;78.00;47.17;;;;;;;;;;2074489;28;20639;-63
2021/03/26 04:43:49;;;;;;;74.00;46.97;;;;;;;;;;2069651;28;20208;-64
2021/03/26 04:44:55;;;;;;;75.37;45.83;;;;;;;;;;2075345;28;20169;-63
2021/03/26 04:46:11;;;;;;;79.37;45.37;;;;;;;;;;2071028;28;20168;-65
2021/03/26 04:47:31;;;;;;;70.10;43.23;;;;;;;;;;2069780;28;20203;-64
2021/03/26 04:49:08;;;;;;;65.67;43.50;;;;;;;;;;2076212;28;20165;-66
2021/03/26 04:50:28;;;;;;;69.22;43.60;;;;;;;;;;2081249;28;20175;-65
2021/03/26 04:51:39;;;;;;;72.07;42.67;;;;;;;;;;2080271;28;20716;-65
2021/03/26 04:53:12;;;;;;;73.17;45.97;;;;;;;;;;2072884;28;20278;-64
2021/03/26 04:54:13;;;;;;;70.03;44.60;;;;;;;;;;2088284;28;20171;-63
2021/03/26 04:55:34;;;;;;;70.90;44.33;;;;;;;;;;2080100;28;20740;-65
2021/03/26 04:56:44;;;;;;;75.77;45.23;;;;;;;;;;2079206;28;20265;-64
2021/03/26 04:57:57;;;;;;;73.20;45.20;;;;;;;;;;2082907;28;20218;-64
2021/03/26 04:59:03;;;;;;;66.07;44.43;;;;;;;;;;2062664;28;20177;-63
2021/03/26 05:00:34;;;;;;;76.07;46.07;;;;;;;;;;2074490;28;20245;-63
2021/03/26 05:01:35;;;;;;;84.40;48.53;;;;;;;;;;2089907;28;20258;-64
2021/03/26 05:02:42;;;;;;;87.90;50.93;;;;;;;;;;2080037;28;20191;-64
2021/03/26 05:03:47;;;;;;;84.63;51.33;;;;;;;;;;2076043;28;20235;-62
2021/03/26 05:04:51;;;;;;;88.87;50.50;;;;;;;;;;2087778;28;20176;-64
2021/03/26 05:05:56;;;;;;;89.43;51.93;;;;;;;;;;2081476;28;20272;-63
2021/03/26 05:07:04;;;;;;;83.27;48.13;;;;;;;;;;2082428;28;20248;-64
2021/03/26 05:08:05;;;;;;;80.67;47.10;;;;;;;;;;2066539;28;20182;-63
2021/03/26 05:09:13;;;;;;;78.53;48.03;;;;;;;;;;2070382;28;20259;-64
2021/03/26 05:10:35;;;;;;;70.87;44.73;;;;;;;;;;2085417;28;20170;-62
2021/03/26 05:11:44;;;;;;;75.30;45.37;;;;;;;;;;2088719;28;20182;-61
2021/03/26 05:12:51;;;;;;;76.30;46.57;;;;;;;;;;2080573;28;20173;-64
2021/03/26 05:14:03;;;;;;;81.87;47.90;;;;;;;;;;2071057;28;20207;-64
2021/03/26 05:15:15;;;;;;;82.60;48.47;;;;;;;;;;2068354;28;20579;-65
2021/03/26 05:16:24;;;;;;;79.13;45.78;;;;;;;;;;2072119;28;20176;-64
2021/03/26 05:17:50;;;;;;;78.37;48.53;;;;;;;;;;2085055;28;20195;-64
2021/03/26 05:19:01;;;;;;;80.23;49.13;;;;;;;;;;2082405;28;20688;-65
2021/03/26 05:20:13;;;;;;;85.83;48.53;;;;;;;;;;2078866;28;20179;-65
2021/03/26 05:21:37;;;;;;;79.33;47.97;;;;;;;;;;2085963;28;20210;-63
2021/03/26 05:23:25;;;;;;;80.93;45.43;;;;;;;;;;2084461;28;20723;-64
2021/03/26 05:24:56;;;;;;;79.50;47.07;;;;;;;;;;2086414;28;20534;-65
2021/03/26 05:26:28;;;;;;;73.37;45.07;;;;;;;;;;2085720;28;20191;-63
2021/03/26 05:27:51;;;;;;;83.87;47.10;;;;;;;;;;2075283;28;20196;-65
2021/03/26 05:28:52;;;;;;;84.53;50.73;;;;;;;;;;2077131;28;20259;-64
2021/03/26 05:29:56;;;;;;;89.50;49.10;;;;;;;;;;2071167;28;20200;-64
2021/03/26 05:31:01;;;;;;;84.10;50.00;;;;;;;;;;2071935;28;20177;-63
2021/03/26 05:32:13;;;;;;;85.13;49.20;;;;;;;;;;2078421;28;20164;-62
2021/03/26 05:33:35;;;;;;;84.93;48.43;;;;;;;;;;2078082;28;20720;-64
2021/03/26 05:34:35;;;;;;;74.23;47.13;;;;;;;;;;2084825;28;20175;-64
2021/03/26 05:35:46;;;;;;;83.50;50.40;;;;;;;;;;2089004;28;20197;-64
2021/03/26 05:37:11;;;;;;;77.70;47.97;;;;;;;;;;2086566;28;20188;-64
2021/03/26 05:38:44;;;;;;;86.27;49.20;;;;;;;;;;2090650;28;20163;-65
2021/03/26 05:40:21;;;;;;;83.57;48.47;;;;;;;;;;2082903;28;20230;-63
2021/03/26 05:41:47;;;;;;;81.23;47.40;;;;;;;;;;2088394;28;20203;-64
2021/03/26 05:43:27;;;;;;;80.77;48.33;;;;;;;;;;2084813;28;20180;-64
2021/03/26 05:44:59;;;;;;;84.97;47.80;;;;;;;;;;2050684;28;20181;-64
2021/03/26 05:46:38;;;;;;;80.73;48.93;;;;;;;;;;2086017;28;20621;-64
2021/03/26 05:48:00;;;;;;;87.40;47.80;;;;;;;;;;2079922;28;20222;-64
2021/03/26 05:49:19;;;;;;;92.93;51.40;;;;;;;;;;2083734;28;20644;-65
2021/03/26 05:50:25;;;;;;;80.90;48.73;;;;;;;;;;2083192;28;20175;-64
2021/03/26 05:51:32;;;;;;;90.90;51.27;;;;;;;;;;2078248;28;20176;-65
2021/03/26 05:52:41;;;;;;;85.83;48.93;;;;;;;;;;2079196;28;20179;-64
2021/03/26 05:53:52;;;;;;;86.03;52.13;;;;;;;;;;2070416;28;20174;-64
2021/03/26 05:55:08;;;;;;;86.77;49.33;;;;;;;;;;2084730;28;20191;-63
2021/03/26 05:56:15;;;;;;;80.93;49.83;;;;;;;;;;2082253;28;20183;-64
2021/03/26 05:57:28;;;;;;;93.90;52.63;;;;;;;;;;2070840;28;20687;-61
2021/03/26 05:58:57;;;;;;;83.93;48.90;;;;;;;;;;2073779;28;20157;-64
2021/03/26 06:00:12;;;;;;;86.65;48.47;;;;;;;;;;2074518;28;20184;-64
2021/03/26 06:01:48;;;;;;;77.87;48.93;;;;;;;;;;2077398;28;20187;-63
2021/03/26 06:03:24;;;;;;;85.53;48.70;;;;;;;;;;2083112;28;20180;-64
2021/03/26 06:04:56;;;;;;;89.68;50.45;;;;;;;;;;2082000;28;20179;-63
2021/03/26 06:06:20;;;;;;;79.30;47.00;;;;;;;;;;2089398;28;20172;-64
2021/03/26 06:07:38;;;;;;;76.57;47.57;;;;;;;;;;2076399;28;20224;-62
2021/03/26 06:09:03;;;;;;;83.03;49.50;;;;;;;;;;2084051;28;20179;-64
2021/03/26 06:10:41;;;;;;;77.93;48.10;;;;;;;;;;2091292;28;20178;-65
2021/03/26 06:12:19;;;;;;;79.43;46.08;;;;;;;;;;2086299;28;20211;-65
2021/03/26 06:13:51;;;;;;;81.87;44.73;;;;;;;;;;2093069;28;20679;-65
2021/03/26 06:15:40;;;;;;;72.13;44.63;;;;;;;;;;2048357;28;20270;-65
2021/03/26 06:17:32;;;;;;;86.77;47.70;;;;;;;;;;2031484;29;20212;-65
2021/03/26 06:18:56;;;;;;;75.97;45.60;;;;;;;;;;2087077;28;20660;-66
2021/03/26 06:20:40;;;;;;;71.22;44.05;;;;;;;;;;2051579;28;20269;-63
2021/03/26 06:22:21;;;;;;;85.17;47.27;;;;;;;;;;2085229;28;20187;-65
2021/03/26 06:23:45;;;;;;;80.50;46.55;;;;;;;;;;2090323;28;20717;-63
2021/03/26 06:25:29;;;;;;;76.47;47.08;;;;;;;;;;2079876;28;20176;-65
2021/03/26 06:26:32;;;;;;;77.57;44.97;;;;;;;;;;2048169;28;20265;-64
2021/03/26 06:27:37;;;;;;;78.80;45.70;;;;;;;;;;2044801;29;20221;-66
2021/03/26 06:28:46;;;;;;;83.20;47.53;;;;;;;;;;2047987;28;20172;-64
2021/03/26 06:30:04;;;;;;;77.47;46.47;;;;;;;;;;2077664;28;20204;-61
2021/03/26 06:31:30;;;;;;;79.72;45.72;;;;;;;;;;2081386;28;20200;-62
2021/03/26 06:33:21;;;;;;;82.30;47.35;;;;;;;;;;2085593;28;20176;-60
2021/03/26 06:34:35;;;;;;;73.07;45.03;;;;;;;;;;2085856;28;20184;-60
2021/03/26 06:35:38;;;;;;;77.10;46.92;;;;;;;;;;2086620;28;20176;-61
2021/03/26 06:36:46;;;;;;;81.70;49.87;;;;;;;;;;2077852;28;20184;-62
2021/03/26 06:37:52;;;;;;;78.70;47.50;;;;;;;;;;2072963;28;20219;-61
2021/03/26 06:38:56;;;;;;;79.10;44.80;;;;;;;;;;2081721;28;20231;-62
2021/03/26 06:40:15;;;;;;;75.90;47.10;;;;;;;;;;2080373;28;20704;-64
2021/03/26 06:41:34;;;;;;;72.25;45.10;;;;;;;;;;2084239;28;20739;-62
2021/03/26 06:42:40;;;;;;;75.03;44.58;;;;;;;;;;2087906;28;20230;-65
2021/03/26 06:44:00;;;;;;;74.97;44.90;;;;;;;;;;2075248;28;20160;-61
2021/03/26 06:45:21;;;;;;;66.22;41.92;;;;;;;;;;2072942;28;20183;-64
2021/03/26 06:46:21;;;;;;;67.32;42.42;;;;;;;;;;2074947;28;21207;-65
2021/03/26 06:47:40;;;;;;;65.15;42.45;;;;;;;;;;2086619;28;20236;-64